Terminal Aerodrome Forecast
Issued by NWS

Home | Current Version | Previous Version | Text Only | Print | Product List | Glossary On
Versions: 1 2 3 4 5 6 7 8 9 10 11 12 13 14 15 16 17 18 19 20 21 22 23 24
000
FTUS41 KRLX 271500 AAA
TAFCKB
TAF AMD
KCKB 271503Z 2715/2812 VRB04KT P6SM SCT100
     FM271800 VRB03KT P6SM BKN045
     FM271900 26004KT P6SM BKN045
     FM280500 00000KT P6SM SCT030
     FM280800 00000KT 6SM BR SCT025=

USA.gov is the U.S. government's official web portal to all federal, state and local government web resources and services.